Detall de PIREP

Printer-friendly versionPDF version

[2008/08/31 13:49:00]
Flight IATA:CT2107
Pilot Number:037
Company ICAO:CAT
Aircraft Type:AT72/F
PAX:17
Departing Airport: LEMD
Destination Airport: LEVC
Alternate Airport:LEPA
Online: VATSIM
Route:NANDO W107 CLS DCT
Flight Level:FL190
No Slew and time accel
No pause
Crash detect
Detect pilot in Cockpit between each 30 and 45 minutes
13:49 Zero fuel Weight: 40068 Lbs, Fuel Weight: 3807 Lbs
13:49 VATSIM:LEMD 311330Z 26004KT 210V020 9999 FEW040 27/06 Q1018 NOSIG
13:49 VATSIM:LEVC 311330Z 09011KT 040V120 9999 FEW030 BKN160 29/18 Q1014 NOSIG
13:56 Parking Brakes off
14:08 Take-off
14:08 Take off Weight: 43760 Lbs
14:08 Wind: 204? @ 002 Knots Heading: 359?
14:08 POS N40? 30? 21?? W003? 34? 28??
14:08 Flaps:1 at 132 Knots
14:08 Gear Up: 136 Knots
14:08 Flaps:0 at 146 Knots
14:17 TOC
14:17 Fuel Weight: 3275 Lb
14:23 Wind:278?@012 Knots Heading: 106? Ground Speed: 326 K
nots Altitude 19143 ft
14:25 TOD
14:25 Fuel Weight: 3017 Lb
14:46 Flaps:1 at 175 Knots
14:46 Gear Down: 157 Knots
14:49 Flaps:2 at 135 Knots
14:50 TouchDown:Rate -306 ft/min Speed: 103 Knots
14:50 VATSIM:LEVC 311430Z 09009KT 050V130 9999 FEW025 BKN160 29/19 Q1014 NOSIG
14:50 Land
14:50 Wind:092?@009 Knots
14:50 Heading: 115?
14:50 Flight Duration: 00:42
14:50 Landing Weight: 42712 Lbs
14:50 POS N39? 29? 23?? W000? 29? 00??
14:52 Parking brakes on
14:52 Block to Block Duration: 00:56
14:52 Final Fuel: 2630 Lbls
14:52 Spent Fuel: 1177 Lbls
14:52 Flight Length: 133 NM
14:52 TOD Land Length: 53 NM

Exportar CSV

Powered by Drupal - Modified by Danger4k